Time;durP1;ratioP1;P1;durP2;ratioP2;P2;SDS_P1;SDS_P2;PMS_P1;PMS_P2;Temp;Humidity;BMP_temperature;BMP_pressure;BME280_temperature;BME280_humidity;BME280_pressure;Samples;Min_cycle;Max_cycle;Signal;HPM_P1;HPM_P2
2023/07/12 00:01:00;;;;;;;8.97;8.23;;;;;;;25.73;45.57;95377.59;6269629;27;109623;-68
2023/07/12 00:04:03;;;;;;;9.63;8.83;;;;;;;25.72;45.18;95374.13;6262033;27;109000;-67
2023/07/12 00:07:12;;;;;;;10.23;9.43;;;;;;;25.73;45.40;95367.66;6281056;27;109063;-68
2023/07/12 00:10:20;;;;;;;9.60;8.80;;;;;;;25.73;45.59;95370.34;6262808;27;109330;-67
2023/07/12 00:13:24;;;;;;;9.23;8.43;;;;;;;25.73;45.44;95366.88;6257981;27;109164;-66
2023/07/12 00:16:30;;;;;;;9.47;8.77;;;;;;;25.74;45.45;95371.13;6272413;27;112464;-68
2023/07/12 00:19:33;;;;;;;9.50;8.80;;;;;;;25.75;45.38;95370.78;6282653;27;109347;-68
2023/07/12 00:22:36;;;;;;;8.60;7.90;;;;;;;25.76;45.94;95366.22;6257952;27;109011;-70
2023/07/12 00:25:42;;;;;;;9.93;9.07;;;;;;;25.76;46.00;95358.16;6272474;27;108956;-68
2023/07/12 00:28:46;;;;;;;9.60;8.70;;;;;;;25.76;45.57;95355.50;6260973;27;109167;-68
2023/07/12 00:31:49;;;;;;;9.50;8.70;;;;;;;25.74;45.63;95352.34;6266550;27;109029;-69
2023/07/12 00:34:52;;;;;;;9.40;8.27;;;;;;;25.76;45.45;95350.91;6258434;27;109690;-68
2023/07/12 00:37:58;;;;;;;9.13;8.33;;;;;;;25.76;45.47;95344.78;6271630;27;109011;-68
2023/07/12 00:41:15;;;;;;;8.33;7.53;;;;;;;25.74;45.65;95342.41;6278273;27;109037;-67
2023/07/12 00:44:22;;;;;;;9.30;8.60;;;;;;;25.75;45.58;95343.19;6268968;27;109079;-68
2023/07/12 00:47:25;;;;;;;9.87;9.07;;;;;;;25.76;45.15;95340.19;6276466;27;109009;-68
2023/07/12 00:50:28;;;;;;;9.30;8.47;;;;;;;25.75;45.46;95338.63;6277132;27;108991;-68
2023/07/12 00:53:32;;;;;;;9.43;8.60;;;;;;;25.76;45.55;95342.09;6260146;27;108975;-67
2023/07/12 00:56:36;;;;;;;9.13;8.43;;;;;;;25.77;45.67;95346.34;6266419;27;109702;-65
2023/07/12 00:59:40;;;;;;;8.93;8.27;;;;;;;25.75;45.87;95343.97;6269127;27;110188;-67
2023/07/12 01:02:47;;;;;;;8.50;7.83;;;;;;;25.77;45.47;95343.66;6282121;27;109013;-68
2023/07/12 01:05:50;;;;;;;8.80;8.10;;;;;;;25.76;45.47;95342.88;6283717;27;109208;-67
2023/07/12 01:08:57;;;;;;;8.70;8.00;;;;;;;25.77;45.67;95347.13;6274395;27;110003;-67
2023/07/12 01:12:03;;;;;;;8.20;7.60;;;;;;;25.76;45.72;95336.72;6285339;27;109291;-68
2023/07/12 01:15:09;;;;;;;9.07;8.27;;;;;;;25.76;45.51;95334.03;6269452;27;109285;-67
2023/07/12 01:18:12;;;;;;;8.47;7.77;;;;;;;25.78;45.48;95337.19;6274278;27;110047;-73
2023/07/12 01:21:21;;;;;;;8.80;8.10;;;;;;;25.77;45.63;95327.56;6248830;27;109747;-73
2023/07/12 01:24:26;;;;;;;9.57;8.60;;;;;;;25.77;45.95;95338.28;6260635;27;108996;-73
2023/07/12 01:27:29;;;;;;;8.70;8.00;;;;;;;25.77;45.71;95332.94;6287227;27;109050;-77
2023/07/12 01:30:33;;;;;;;9.23;8.33;;;;;;;25.76;45.58;95331.38;6260071;27;108931;-66
2023/07/12 01:33:36;;;;;;;8.73;7.83;;;;;;;25.77;45.71;95331.03;6269233;27;108964;-74
2023/07/12 01:36:41;;;;;;;8.60;7.90;;;;;;;25.77;45.61;95333.72;6276945;27;108843;-74
2023/07/12 01:39:44;;;;;;;8.80;8.10;;;;;;;25.77;45.70;95338.28;6289738;27;109029;-74
2023/07/12 01:42:47;;;;;;;8.53;7.83;;;;;;;25.76;45.33;95334.03;6277863;27;109340;-73
2023/07/12 01:45:51;;;;;;;8.57;7.87;;;;;;;25.76;45.62;95340.19;6277701;27;109312;-73
2023/07/12 01:48:54;;;;;;;8.90;8.20;;;;;;;25.77;45.57;95338.28;6276347;27;109044;-74
2023/07/12 01:51:58;;;;;;;8.27;7.67;;;;;;;25.78;45.48;95343.34;6265445;27;109248;-74
2023/07/12 01:55:02;;;;;;;8.30;7.53;;;;;;;25.76;46.00;95342.09;6264166;27;109119;-74
2023/07/12 01:58:05;;;;;;;8.10;7.30;;;;;;;25.78;45.70;95353.28;6257956;27;109969;-74
2023/07/12 02:01:08;;;;;;;8.30;7.60;;;;;;;25.77;45.99;95346.34;6263396;27;108965;-74
2023/07/12 02:04:12;;;;;;;9.13;8.43;;;;;;;25.78;45.94;95347.91;6275769;27;109068;-74
2023/07/12 02:07:16;;;;;;;7.80;7.20;;;;;;;25.77;45.68;95347.13;6272847;27;109115;-74
2023/07/12 02:10:20;;;;;;;8.63;8.00;;;;;;;25.78;45.59;95345.22;6271577;27;109029;-74
2023/07/12 02:13:24;;;;;;;8.87;8.17;;;;;;;25.77;45.41;95355.16;6263784;27;109596;-74
2023/07/12 02:16:27;;;;;;;8.90;8.20;;;;;;;25.78;45.77;95353.28;6254251;27;109500;-73
2023/07/12 02:19:31;;;;;;;9.00;8.20;;;;;;;25.77;45.85;95359.75;6280889;27;109007;-74
2023/07/12 02:22:37;;;;;;;8.63;8.03;;;;;;;25.77;46.12;95365.91;6277918;27;109270;-73
2023/07/12 02:25:40;;;;;;;7.73;7.13;;;;;;;25.79;45.84;95365.56;6265628;27;108996;-75
2023/07/12 02:28:43;;;;;;;8.30;7.60;;;;;;;25.78;45.71;95370.16;6277561;27;109767;-74
2023/07/12 02:31:46;;;;;;;8.40;7.70;;;;;;;25.78;45.76;95364.00;6267065;27;109188;-75
2023/07/12 02:34:50;;;;;;;8.60;7.83;;;;;;;25.79;45.75;95365.56;6278228;27;109066;-75
2023/07/12 02:37:55;;;;;;;8.07;7.53;;;;;;;25.77;45.87;95373.94;6272322;27;111296;-77
2023/07/12 02:40:58;;;;;;;8.23;7.53;;;;;;;25.78;45.66;95370.16;6258093;27;109425;-75
2023/07/12 02:44:02;;;;;;;8.47;7.67;;;;;;;25.78;45.41;95364.78;6263274;27;108740;-73
2023/07/12 02:47:05;;;;;;;7.63;7.03;;;;;;;25.79;45.84;95376.28;6263635;27;111842;-73
2023/07/12 02:50:09;;;;;;;9.70;7.67;;;;;;;25.78;45.60;95382.75;6264840;27;109073;-71
2023/07/12 02:53:18;;;;;;;8.23;7.53;;;;;;;25.78;45.58;95386.22;6285353;27;109458;-73
2023/07/12 02:56:21;;;;;;;9.60;7.70;;;;;;;25.79;46.03;95392.38;6270682;27;109026;-73
2023/07/12 02:59:24;;;;;;;8.50;7.90;;;;;;;25.78;45.85;95390.81;6252062;27;109013;-74
2023/07/12 03:02:29;;;;;;;8.13;7.43;;;;;;;25.76;45.97;95395.72;6272700;27;110866;-69
2023/07/12 03:05:34;;;;;;;8.70;7.90;;;;;;;25.75;45.81;95394.13;6288427;27;109114;-68
2023/07/12 03:08:39;;;;;;;8.60;7.90;;;;;;;25.70;45.71;95392.41;6277886;27;109808;-68
2023/07/12 03:11:45;;;;;;;9.80;8.93;;;;;;;25.71;45.72;95399.34;6270609;27;109299;-68
2023/07/12 03:14:48;;;;;;;10.13;9.27;;;;;;;25.69;45.71;95401.53;6275383;27;110304;-68
2023/07/12 03:17:52;;;;;;;8.83;8.13;;;;;;;25.70;45.79;95405.78;6264288;27;109774;-68
2023/07/12 03:20:59;;;;;;;56.83;52.53;;;;;;;25.71;46.12;95398.53;6278495;27;109345;-68
2023/07/12 03:24:04;;;;;;;35.10;32.33;;;;;;;25.69;45.98;95396.19;6257256;27;109376;-67
2023/07/12 03:27:07;;;;;;;96.60;89.90;;;;;;;25.67;46.67;95401.06;6254506;27;109197;-70
2023/07/12 03:30:11;;;;;;;90.97;84.77;;;;;;;25.69;46.43;95398.88;6261201;27;109088;-68
2023/07/12 03:33:15;;;;;;;77.90;72.63;;;;;;;25.69;47.46;95409.59;6260413;27;111788;-68
2023/07/12 03:36:20;;;;;;;69.07;64.17;;;;;;;25.71;47.06;95409.25;6251638;27;109068;-68
2023/07/12 03:39:25;;;;;;;96.37;89.90;;;;;;;25.72;46.55;95408.19;6262044;27;109330;-66
2023/07/12 03:42:28;;;;;;;38.27;35.30;;;;;;;25.68;47.07;95416.06;6262132;27;109001;-66
2023/07/12 03:45:31;;;;;;;34.60;32.00;;;;;;;25.68;46.11;95416.84;6262019;27;110195;-66
2023/07/12 03:48:35;;;;;;;22.50;15.63;;;;;;;25.66;46.94;95413.69;6251233;27;109040;-66
2023/07/12 03:51:38;;;;;;;18.47;16.83;;;;;;;25.64;46.87;95423.94;6271798;27;109794;-66
2023/07/12 03:54:42;;;;;;;20.50;18.90;;;;;;;25.65;47.01;95425.53;6268600;27;109100;-66
2023/07/12 03:57:45;;;;;;;12.73;11.70;;;;;;;25.60;46.88;95425.69;6264109;27;109616;-66
2023/07/12 04:00:50;;;;;;;12.50;11.50;;;;;;;25.50;47.04;95428.72;6257777;27;108977;-66
2023/07/12 04:03:54;;;;;;;13.00;11.90;;;;;;;25.46;47.44;95433.13;6261837;27;109185;-67
2023/07/12 04:06:57;;;;;;;14.80;12.87;;;;;;;25.42;48.40;95436.78;6255631;27;109427;-65
2023/07/12 04:10:01;;;;;;;11.50;10.50;;;;;;;25.46;47.61;95419.75;6243600;27;109293;-66
2023/07/12 04:13:05;;;;;;;12.30;11.20;;;;;;;25.45;47.79;95428.09;6266345;27;108999;-65
2023/07/12 04:16:10;;;;;;;11.47;10.50;;;;;;;25.48;47.61;95435.50;6280449;27;108667;-65
2023/07/12 04:19:13;;;;;;;11.30;10.20;;;;;;;25.34;48.73;95427.59;6272816;27;109001;-64
2023/07/12 04:22:16;;;;;;;12.10;10.83;;;;;;;25.36;48.29;95433.44;6272056;27;108707;-64
2023/07/12 04:25:21;;;;;;;12.40;11.30;;;;;;;25.30;48.89;95424.78;6262489;27;109135;-66
2023/07/12 04:28:24;;;;;;;11.50;10.60;;;;;;;25.42;48.08;95432.19;6260967;27;110127;-65
2023/07/12 04:31:28;;;;;;;13.10;10.87;;;;;;;25.32;48.77;95416.41;6270664;27;109033;-67
2023/07/12 04:34:31;;;;;;;11.47;10.47;;;;;;;25.40;48.46;95418.34;6242844;27;110001;-64
2023/07/12 04:37:46;;;;;;;11.13;10.03;;;;;;;25.52;48.15;95418.44;6253830;27;109081;-64
2023/07/12 04:40:54;;;;;;;15.20;13.63;;;;;;;25.39;47.91;95419.44;6260095;27;109000;-64
2023/07/12 04:43:58;;;;;;;12.37;11.30;;;;;;;25.42;48.46;95420.69;6251199;27;109221;-64
2023/07/12 04:47:01;;;;;;;11.77;9.87;;;;;;;25.15;48.98;95419.88;6260642;27;110609;-64
2023/07/12 04:50:04;;;;;;;11.40;10.60;;;;;;;25.15;48.56;95425.25;6260748;27;109029;-73
2023/07/12 04:53:07;;;;;;;13.13;11.93;;;;;;;25.10;48.83;95425.41;6260978;27;108968;-71
2023/07/12 04:56:12;;;;;;;13.27;11.07;;;;;;;24.95;49.37;95431.25;6250146;27;109174;-72
2023/07/12 04:59:15;;;;;;;12.30;11.20;;;;;;;24.98;49.44;95430.59;6259976;27;109023;-71
2023/07/12 05:02:19;;;;;;;12.53;11.43;;;;;;;24.93;49.48;95438.81;6264460;27;109795;-72
2023/07/12 05:05:22;;;;;;;14.63;12.97;;;;;;;24.96;49.26;95438.16;6264975;27;109104;-72
2023/07/12 05:08:26;;;;;;;14.97;13.60;;;;;;;24.87;49.16;95424.00;6253604;27;108974;-73
2023/07/12 05:11:31;;;;;;;15.10;13.70;;;;;;;24.86;49.22;95431.22;6239708;27;108973;-72
2023/07/12 05:14:34;;;;;;;16.80;15.10;;;;;;;24.74;50.18;95428.38;6239845;27;109254;-72
2023/07/12 05:17:39;;;;;;;17.10;15.50;;;;;;;24.80;49.44;95424.44;6250360;27;109253;-71
2023/07/12 05:20:42;;;;;;;14.47;13.20;;;;;;;24.55;50.78;95430.53;6258581;27;109205;-72
2023/07/12 05:23:45;;;;;;;13.77;12.43;;;;;;;24.53;50.59;95430.03;6264616;27;109358;-72
2023/07/12 05:26:50;;;;;;;14.30;12.60;;;;;;;24.60;51.16;95428.50;6264368;27;109994;-72
2023/07/12 05:29:53;;;;;;;13.57;12.47;;;;;;;24.70;50.69;95425.56;6253177;27;110011;-73
2023/07/12 05:32:57;;;;;;;14.40;13.10;;;;;;;24.79;50.71;95436.25;6266476;27;109330;-71
2023/07/12 05:36:01;;;;;;;16.03;12.90;;;;;;;24.69;51.67;95426.63;6267743;27;109069;-71
2023/07/12 05:39:04;;;;;;;14.13;12.93;;;;;;;24.76;52.60;95439.56;6267731;27;109381;-71
2023/07/12 05:42:09;;;;;;;17.20;12.90;;;;;;;24.77;52.24;95427.75;6257623;27;109121;-71
2023/07/12 05:45:14;;;;;;;18.53;14.20;;;;;;;24.84;52.08;95430.75;6267844;27;108496;-71
2023/07/12 05:48:17;;;;;;;14.53;12.93;;;;;;;24.87;52.41;95440.06;6268889;27;108947;-73
2023/07/12 05:51:21;;;;;;;16.73;14.63;;;;;;;24.83;52.83;95431.84;6263432;27;109008;-71
2023/07/12 05:54:25;;;;;;;15.73;14.20;;;;;;;24.64;52.78;95436.69;6263318;27;109213;-71
2023/07/12 05:57:30;;;;;;;16.43;13.90;;;;;;;24.75;53.32;95438.78;6268466;27;109332;-69
2023/07/12 06:00:33;;;;;;;14.70;13.20;;;;;;;25.09;51.56;95440.69;6264791;27;109534;-62
2023/07/12 06:03:36;;;;;;;14.60;13.20;;;;;;;25.33;50.67;95442.88;6254057;27;109750;-62
2023/07/12 06:06:39;;;;;;;24.40;18.00;;;;;;;25.38;50.76;95440.09;6263795;27;108948;-62
2023/07/12 06:09:42;;;;;;;19.87;14.53;;;;;;;25.34;51.16;95443.66;6263438;27;108850;-62
2023/07/12 06:12:47;;;;;;;15.60;14.10;;;;;;;25.11;53.85;95447.63;6263392;27;109031;-62
2023/07/12 06:15:50;;;;;;;15.03;13.33;;;;;;;25.17;53.51;95446.34;6253497;27;109216;-62
2023/07/12 06:18:54;;;;;;;15.20;13.67;;;;;;;25.14;52.84;95447.00;6262606;27;109473;-62
2023/07/12 06:21:58;;;;;;;15.40;13.90;;;;;;;25.22;51.93;95449.69;6263597;27;109374;-62
2023/07/12 06:25:01;;;;;;;16.00;12.43;;;;;;;25.32;52.15;95444.00;6263739;27;109626;-62
2023/07/12 06:28:05;;;;;;;14.87;13.40;;;;;;;25.56;51.07;95454.25;6254573;27;109734;-62
2023/07/12 06:31:09;;;;;;;14.30;12.97;;;;;;;25.62;51.53;95450.28;6262485;27;109321;-62
2023/07/12 06:34:13;;;;;;;13.70;12.43;;;;;;;25.82;51.12;95453.41;6263793;27;111041;-62
2023/07/12 06:37:16;;;;;;;15.40;12.83;;;;;;;25.88;51.29;95449.47;6257720;27;110202;-64
2023/07/12 06:40:19;;;;;;;15.77;13.80;;;;;;;25.97;50.80;95442.94;6259629;27;108857;-62
2023/07/12 06:43:24;;;;;;;17.33;15.47;;;;;;;26.03;50.92;95446.25;6263053;27;109285;-65
2023/07/12 06:46:28;;;;;;;18.60;17.07;;;;;;;26.12;49.81;95448.94;6262941;27;111211;-62
2023/07/12 06:49:31;;;;;;;19.50;17.60;;;;;;;26.21;49.87;95458.53;6252072;27;109029;-62
2023/07/12 06:52:34;;;;;;;17.30;15.60;;;;;;;26.23;49.43;95442.88;6263234;27;108994;-74
2023/07/12 06:55:43;;;;;;;15.93;14.40;;;;;;;26.16;49.58;95436.44;6263322;27;110182;-63
2023/07/12 06:58:47;;;;;;;15.33;13.80;;;;;;;26.26;48.80;95428.81;6262536;27;109003;-62
2023/07/12 07:01:50;;;;;;;14.80;13.60;;;;;;;26.33;48.74;95443.63;6252681;27;109314;-63
2023/07/12 07:04:54;;;;;;;14.50;13.30;;;;;;;26.30;48.73;95438.91;6262996;27;109665;-62
2023/07/12 07:07:57;;;;;;;16.43;13.10;;;;;;;26.29;47.70;95432.75;6262673;27;109026;-64
2023/07/12 07:11:02;;;;;;;14.23;12.93;;;;;;;26.43;48.32;95437.91;6258440;27;109519;-62
2023/07/12 07:14:07;;;;;;;15.20;13.80;;;;;;;26.46;47.76;95442.63;6257307;27;109536;-63
2023/07/12 07:17:11;;;;;;;15.60;13.40;;;;;;;26.50;47.75;95448.91;6262081;27;109031;-62
2023/07/12 07:20:14;;;;;;;16.23;13.83;;;;;;;26.49;47.89;95452.69;6262316;27;109999;-63
2023/07/12 07:23:17;;;;;;;16.17;13.67;;;;;;;26.44;47.98;95456.38;6251189;27;109597;-63
2023/07/12 07:26:20;;;;;;;17.03;15.20;;;;;;;26.57;48.17;95452.66;6262283;27;108970;-63
2023/07/12 07:29:24;;;;;;;18.40;15.60;;;;;;;26.66;47.79;95457.22;6261572;27;109785;-63
2023/07/12 07:32:28;;;;;;;23.10;16.20;;;;;;;26.70;47.37;95452.75;6262206;27;109012;-63
2023/07/12 07:35:31;;;;;;;23.13;20.87;;;;;;;26.74;48.09;95453.72;6252501;27;109105;-63
2023/07/12 07:38:34;;;;;;;23.47;21.10;;;;;;;26.77;48.91;95451.16;6261353;27;109502;-63
2023/07/12 07:41:37;;;;;;;19.80;17.83;;;;;;;26.69;48.87;95449.28;6262082;27;109582;-63
2023/07/12 07:44:42;;;;;;;22.27;18.60;;;;;;;26.67;49.03;95448.03;6262104;27;109245;-63
2023/07/12 07:47:47;;;;;;;21.60;17.30;;;;;;;26.75;48.20;95448.00;6251680;27;109156;-63
2023/07/12 07:50:50;;;;;;;19.73;17.43;;;;;;;26.84;48.72;95448.72;6261250;27;109164;-63
2023/07/12 07:53:53;;;;;;;17.20;15.60;;;;;;;26.87;48.68;95448.06;6262299;27;110165;-66
2023/07/12 07:56:56;;;;;;;17.60;15.80;;;;;;;26.84;48.80;95440.66;6254141;27;108820;-63
2023/07/12 08:00:04;;;;;;;15.03;13.73;;;;;;;26.79;48.48;95438.19;6258796;27;109015;-62
2023/07/12 08:03:08;;;;;;;15.00;13.50;;;;;;;27.05;48.65;95442.56;6261901;27;110063;-63
2023/07/12 08:06:11;;;;;;;17.30;15.07;;;;;;;27.11;48.49;95435.91;6261312;27;108963;-63
2023/07/12 08:09:15;;;;;;;18.07;16.47;;;;;;;27.09;48.45;95438.13;6250119;27;109499;-63
2023/07/12 08:12:18;;;;;;;14.77;13.27;;;;;;;27.03;47.69;95445.59;6261812;27;108638;-63
2023/07/12 08:15:24;;;;;;;14.23;12.57;;;;;;;27.11;46.82;95449.34;6261314;27;109272;-63
2023/07/12 08:18:27;;;;;;;13.50;12.40;;;;;;;27.12;47.16;95449.00;6259950;27;109629;-67
2023/07/12 08:21:30;;;;;;;14.50;13.00;;;;;;;27.14;47.16;95446.78;6227101;27;109776;-72
2023/07/12 08:24:33;;;;;;;14.20;12.90;;;;;;;27.24;47.99;95444.81;6235899;27;109323;-72
2023/07/12 08:27:36;;;;;;;12.80;11.70;;;;;;;27.09;47.84;95449.66;6245844;27;108885;-72
2023/07/12 08:30:41;;;;;;;14.57;12.57;;;;;;;27.00;47.11;95458.88;6254967;27;109197;-71
2023/07/12 08:33:44;;;;;;;14.50;13.10;;;;;;;27.04;47.46;95438.31;6256346;27;109700;-72
2023/07/12 08:36:47;;;;;;;16.17;13.40;;;;;;;27.18;47.20;95446.91;6265546;27;109296;-72
2023/07/12 08:39:50;;;;;;;14.83;13.37;;;;;;;27.25;46.55;95436.44;6265051;27;110134;-72
2023/07/12 08:42:53;;;;;;;12.83;11.73;;;;;;;27.22;46.69;95442.47;6255284;27;109139;-71
2023/07/12 08:46:05;;;;;;;14.33;12.73;;;;;;;27.24;46.85;95450.97;6265270;27;109249;-72
2023/07/12 08:49:10;;;;;;;14.73;13.23;;;;;;;27.26;46.39;95443.41;6264719;27;109790;-71
2023/07/12 08:52:17;;;;;;;13.60;12.33;;;;;;;27.17;46.90;95431.88;6265517;27;109011;-72
2023/07/12 08:55:22;;;;;;;15.27;13.80;;;;;;;27.06;47.22;95441.47;6255776;27;109073;-74
2023/07/12 08:58:32;;;;;;;15.60;14.00;;;;;;;27.00;46.91;95440.88;6264536;27;110019;-70
2023/07/12 09:01:43;;;;;;;15.67;14.37;;;;;;;26.96;46.71;95445.34;6254498;27;109276;-74
2023/07/12 09:04:47;;;;;;;16.10;14.40;;;;;;;27.01;46.54;95441.66;6263419;27;108959;-71
2023/07/12 09:07:55;;;;;;;16.33;14.50;;;;;;;27.08;47.06;95433.88;6263389;27;109164;-71
2023/07/12 09:10:58;;;;;;;21.37;19.33;;;;;;;27.34;48.62;95442.53;6268965;27;109310;-71
2023/07/12 09:14:01;;;;;;;17.70;16.07;;;;;;;27.42;47.35;95433.59;6269980;27;109243;-73
2023/07/12 09:17:22;;;;;;;17.43;15.63;;;;;;;27.46;47.30;95420.28;6258935;27;108991;-71
2023/07/12 09:20:29;;;;;;;17.60;15.77;;;;;;;27.49;46.54;95414.25;6267813;27;109078;-72
2023/07/12 09:23:38;;;;;;;17.83;16.03;;;;;;;27.55;47.00;95417.50;6269154;27;109167;-72
2023/07/12 09:26:41;;;;;;;17.17;15.67;;;;;;;27.60;47.02;95403.88;6269129;27;109278;-71
2023/07/12 09:29:45;;;;;;;19.23;15.80;;;;;;;27.59;47.45;95396.91;6257792;27;108962;-61
2023/07/12 09:32:50;;;;;;;18.00;16.30;;;;;;;27.58;48.10;95398.03;6264810;27;112183;-61
2023/07/12 09:35:55;;;;;;;19.97;15.83;;;;;;;27.64;47.86;95394.00;6264512;27;109015;-62
2023/07/12 09:39:01;;;;;;;19.93;16.10;;;;;;;27.73;48.44;95392.81;6259183;27;109636;-62
2023/07/12 09:42:04;;;;;;;17.53;15.87;;;;;;;27.59;48.12;95394.22;6259316;27;108950;-61
2023/07/12 09:45:12;;;;;;;16.47;14.97;;;;;;;27.36;47.66;95389.22;6264738;27;109810;-62
2023/07/12 09:48:27;;;;;;;17.30;15.80;;;;;;;27.25;48.22;95377.31;6263702;27;108993;-61
2023/07/12 09:51:38;;;;;;;19.87;17.97;;;;;;;27.18;47.78;95372.44;6228816;27;109123;-62
2023/07/12 09:54:51;;;;;;;18.10;16.20;;;;;;;27.12;47.62;95386.41;6239047;27;109377;-62
2023/07/12 09:58:03;;;;;;;17.23;15.43;;;;;;;27.15;46.86;95377.69;6248434;27;108998;-62
2023/07/12 10:01:15;;;;;;;17.53;15.83;;;;;;;27.25;47.72;95376.53;6263478;27;109954;-62
2023/07/12 10:04:36;;;;;;;17.13;15.43;;;;;;;27.48;47.24;95387.69;6256288;27;108996;-62
2023/07/12 10:07:53;;;;;;;16.93;15.23;;;;;;;27.55;47.60;95379.84;6263849;27;109218;-62
2023/07/12 10:11:04;;;;;;;16.23;14.73;;;;;;;27.38;47.39;95375.44;6263045;27;109197;-62
2023/07/12 10:14:14;;;;;;;15.63;14.13;;;;;;;27.33;48.04;95368.38;6254165;27;109024;-62
2023/07/12 10:17:24;;;;;;;16.43;14.80;;;;;;;27.32;47.80;95364.13;6263423;27;109013;-62
2023/07/12 10:20:29;;;;;;;22.87;20.57;;;;;;;27.41;47.88;95364.06;6262931;27;109238;-62
2023/07/12 10:23:40;;;;;;;17.23;15.00;;;;;;;27.58;47.48;95363.09;6263605;27;109136;-62
2023/07/12 10:26:45;;;;;;;17.10;15.30;;;;;;;27.66;47.40;95357.59;6253140;27;111140;-62
2023/07/12 10:29:55;;;;;;;16.27;14.80;;;;;;;27.69;46.71;95358.84;6262916;27;110959;-62
2023/07/12 10:33:02;;;;;;;16.57;14.87;;;;;;;27.58;46.73;95358.50;6238701;28;110128;-62
2023/07/12 10:36:13;;;;;;;16.63;15.03;;;;;;;27.53;47.91;95355.22;6229042;27;109339;-62
2023/07/12 10:39:16;;;;;;;15.50;14.10;;;;;;;27.64;47.50;95361.75;6256732;27;109245;-62
2023/07/12 10:42:28;;;;;;;16.33;14.20;;;;;;;27.70;46.67;95347.72;6263614;27;108975;-62
2023/07/12 10:45:37;;;;;;;15.43;13.87;;;;;;;27.68;47.51;95341.91;6263052;27;108969;-62
2023/07/12 10:48:48;;;;;;;14.80;13.43;;;;;;;27.55;47.16;95347.59;6252083;27;108987;-63
2023/07/12 10:52:18;;;;;;;15.60;14.10;;;;;;;27.39;47.70;95344.78;6263171;27;109275;-62
2023/07/12 10:55:36;;;;;;;15.00;13.53;;;;;;;27.34;47.62;95334.22;6263125;27;109020;-73
2023/07/12 10:58:48;;;;;;;13.73;12.57;;;;;;;27.33;46.78;95332.66;6255312;27;109440;-64
2023/07/12 11:01:53;;;;;;;13.90;12.80;;;;;;;27.32;46.99;95329.19;6262387;27;109330;-66
2023/07/12 11:04:57;;;;;;;14.83;12.33;;;;;;;27.31;47.24;95324.94;6262729;27;109192;-62
2023/07/12 11:08:03;;;;;;;13.50;12.37;;;;;;;27.29;46.46;95321.00;6262646;27;110841;-62
2023/07/12 11:11:44;;;;;;;13.13;12.17;;;;;;;27.27;46.61;95324.03;6252024;27;109068;-62
2023/07/12 11:14:52;;;;;;;14.90;13.40;;;;;;;27.29;47.10;95329.06;6184954;28;109820;-62
2023/07/12 11:18:01;;;;;;;13.70;12.60;;;;;;;27.29;46.70;95321.00;6185200;28;108932;-62
2023/07/12 11:21:06;;;;;;;13.90;12.57;;;;;;;27.25;47.12;95314.72;6257459;27;109033;-62
2023/07/12 11:24:23;;;;;;;12.30;11.10;;;;;;;27.27;46.91;95318.66;6257059;27;109257;-62
2023/07/12 11:27:40;;;;;;;13.03;11.80;;;;;;;27.25;46.37;95302.06;6262277;27;109141;-63
2023/07/12 11:30:44;;;;;;;13.37;12.10;;;;;;;27.25;46.84;95312.03;6262185;27;109001;-62
2023/07/12 11:33:52;;;;;;;13.00;12.00;;;;;;;27.24;46.31;95307.75;6252168;27;111811;-62
2023/07/12 11:36:57;;;;;;;14.90;13.50;;;;;;;27.25;47.11;95310.13;6262087;27;108972;-63
2023/07/12 11:40:02;;;;;;;12.40;11.40;;;;;;;27.26;46.12;95306.34;6261450;27;109010;-62
2023/07/12 11:43:32;;;;;;;14.70;11.47;;;;;;;27.26;46.14;95297.50;6265060;27;109341;-72
2023/07/12 11:46:39;;;;;;;12.70;11.57;;;;;;;27.24;45.48;95284.38;6257682;27;109400;-72
2023/07/12 11:49:42;;;;;;;11.73;10.73;;;;;;;27.23;45.13;95280.13;6261748;27;109179;-71
2023/07/12 11:52:45;;;;;;;12.70;10.50;;;;;;;27.20;44.96;95274.59;6262163;27;108959;-71
2023/07/12 11:55:50;;;;;;;10.80;9.87;;;;;;;27.21;44.77;95282.31;6251671;27;109065;-72
2023/07/12 11:58:55;;;;;;;12.30;9.93;;;;;;;27.19;45.05;95263.06;6261453;27;109038;-72
2023/07/12 12:01:59;;;;;;;10.17;9.17;;;;;;;27.21;44.30;95274.25;6261980;27;109064;-72
2023/07/12 12:05:04;;;;;;;10.47;9.57;;;;;;;27.20;45.38;95278.06;6262162;27;109009;-72
2023/07/12 12:08:11;;;;;;;10.77;9.90;;;;;;;27.22;44.36;95267.78;6251074;27;108983;-71
2023/07/12 12:11:16;;;;;;;10.40;9.40;;;;;;;27.25;46.33;95261.75;6260948;27;108977;-72
2023/07/12 12:14:25;;;;;;;10.20;9.30;;;;;;;27.26;45.77;95263.34;6261338;27;109189;-72
2023/07/12 12:17:32;;;;;;;10.63;9.73;;;;;;;27.22;45.54;95259.72;6261980;27;108837;-73
2023/07/12 12:20:37;;;;;;;9.67;8.83;;;;;;;27.23;44.81;95250.56;6254622;27;108932;-74
2023/07/12 12:23:42;;;;;;;10.67;9.70;;;;;;;27.21;44.47;95252.75;6262092;27;109021;-73
2023/07/12 12:26:50;;;;;;;10.37;9.37;;;;;;;27.24;44.39;95245.97;6262030;27;108926;-72
2023/07/12 12:29:53;;;;;;;10.47;9.57;;;;;;;27.22;44.48;95238.25;6252842;27;109428;-71
2023/07/12 12:32:59;;;;;;;10.23;9.30;;;;;;;27.23;44.19;95233.66;6261543;27;108995;-72
2023/07/12 12:36:06;;;;;;;9.77;8.83;;;;;;;27.25;44.51;95234.09;6261711;27;108981;-72
2023/07/12 12:39:21;;;;;;;10.10;9.30;;;;;;;27.27;44.86;95239.94;6260751;27;109987;-72
2023/07/12 12:42:27;;;;;;;10.50;9.70;;;;;;;27.30;45.30;95231.22;6251246;27;110410;-73
2023/07/12 12:45:33;;;;;;;11.87;9.90;;;;;;;27.30;44.59;95226.63;6261604;27;109063;-73
2023/07/12 12:48:36;;;;;;;10.27;9.47;;;;;;;27.33;44.63;95225.16;6260051;27;109110;-74
2023/07/12 12:51:42;;;;;;;9.70;8.90;;;;;;;27.30;44.96;95221.25;6258115;27;110929;-68
2023/07/12 12:54:48;;;;;;;10.20;9.13;;;;;;;27.36;44.04;95237.91;6255814;27;108923;-64
2023/07/12 12:58:03;;;;;;;9.93;9.13;;;;;;;27.36;44.45;95230.66;6261633;27;110871;-65
2023/07/12 13:01:26;;;;;;;10.23;9.30;;;;;;;27.39;44.26;95230.00;6261140;27;108936;-63
2023/07/12 13:04:32;;;;;;;9.97;9.00;;;;;;;27.35;44.26;95231.75;6250344;27;108809;-63
2023/07/12 13:07:41;;;;;;;9.90;9.07;;;;;;;27.37;45.18;95223.38;6261385;27;110379;-63
2023/07/12 13:11:05;;;;;;;10.90;10.00;;;;;;;27.35;44.92;95222.91;6260224;27;108982;-64
2023/07/12 13:14:12;;;;;;;11.20;10.30;;;;;;;27.38;44.57;95224.94;6256827;27;108986;-64
2023/07/12 13:17:21;;;;;;;10.47;9.60;;;;;;;27.40;44.14;95223.50;6250461;27;108955;-64
2023/07/12 13:20:44;;;;;;;10.53;9.60;;;;;;;27.39;44.24;95216.56;6255292;27;109057;-64
2023/07/12 13:23:48;;;;;;;10.40;9.40;;;;;;;27.39;44.42;95221.16;6265004;27;109041;-63
2023/07/12 13:26:51;;;;;;;10.10;9.20;;;;;;;27.35;44.39;95221.00;6255168;27;109773;-67
2023/07/12 13:29:56;;;;;;;9.80;9.00;;;;;;;27.38;44.29;95214.97;6263807;27;109308;-66
2023/07/12 13:32:59;;;;;;;11.20;10.30;;;;;;;27.42;43.77;95220.47;6264692;27;108990;-63
2023/07/12 13:36:03;;;;;;;11.10;10.20;;;;;;;27.43;44.61;95222.81;6264493;27;109082;-66
2023/07/12 13:39:19;;;;;;;12.17;10.97;;;;;;;27.43;44.44;95214.75;6252277;27;109178;-63
2023/07/12 13:42:26;;;;;;;11.77;10.77;;;;;;;27.48;44.44;95218.34;6264861;27;109916;-63
2023/07/12 13:45:47;;;;;;;11.57;10.67;;;;;;;27.50;44.03;95208.03;6264246;27;109024;-63
2023/07/12 13:48:50;;;;;;;10.73;9.83;;;;;;;27.49;44.63;95223.38;6259059;27;110545;-64
2023/07/12 13:51:53;;;;;;;11.70;10.70;;;;;;;27.51;44.49;95218.44;6259552;27;109067;-63
2023/07/12 13:54:57;;;;;;;10.73;9.93;;;;;;;27.55;44.15;95213.97;6263969;27;108984;-64
2023/07/12 13:58:00;;;;;;;11.00;10.10;;;;;;;27.58;44.05;95217.91;6264390;27;110089;-64
2023/07/12 14:01:05;;;;;;;10.10;9.20;;;;;;;27.58;43.85;95207.94;6254221;27;110004;-69
2023/07/12 14:04:25;;;;;;;9.70;8.90;;;;;;;27.60;42.87;95215.66;6264352;27;108896;-69
2023/07/12 14:07:37;;;;;;;9.40;8.60;;;;;;;27.59;42.58;95200.66;6264279;27;108957;-69
2023/07/12 14:10:43;;;;;;;9.20;8.50;;;;;;;27.58;43.34;95197.19;6260062;27;108939;-70